sensor_id;sensor_type;location;lat;lon;timestamp;temperature;humidity
28336;DHT22;15592;53.656;7.276;2023-09-19T00:00:42;16.20;99.90
28336;DHT22;15592;53.656;7.276;2023-09-19T00:03:09;16.30;99.90
28336;DHT22;15592;53.656;7.276;2023-09-19T00:05:36;16.30;99.90
28336;DHT22;15592;53.656;7.276;2023-09-19T00:08:04;16.30;99.90
28336;DHT22;15592;53.656;7.276;2023-09-19T00:10:31;16.30;99.90
28336;DHT22;15592;53.656;7.276;2023-09-19T00:13:00;16.20;99.90
28336;DHT22;15592;53.656;7.276;2023-09-19T00:15:26;16.10;99.90
28336;DHT22;15592;53.656;7.276;2023-09-19T00:17:56;16.10;99.90
28336;DHT22;15592;53.656;7.276;2023-09-19T00:20:23;16.00;99.90
28336;DHT22;15592;53.656;7.276;2023-09-19T00:22:50;16.00;99.90
28336;DHT22;15592;53.656;7.276;2023-09-19T00:25:19;15.80;99.90
28336;DHT22;15592;53.656;7.276;2023-09-19T00:27:44;15.80;99.90
28336;DHT22;15592;53.656;7.276;2023-09-19T00:30:11;15.70;99.90
28336;DHT22;15592;53.656;7.276;2023-09-19T00:32:50;15.60;99.90
28336;DHT22;15592;53.656;7.276;2023-09-19T00:35:22;15.60;99.90
28336;DHT22;15592;53.656;7.276;2023-09-19T00:37:51;15.60;99.90
28336;DHT22;15592;53.656;7.276;2023-09-19T00:40:17;15.50;99.90
28336;DHT22;15592;53.656;7.276;2023-09-19T00:42:44;15.40;99.90
28336;DHT22;15592;53.656;7.276;2023-09-19T00:45:11;15.40;99.90
28336;DHT22;15592;53.656;7.276;2023-09-19T00:47:43;15.40;99.90
28336;DHT22;15592;53.656;7.276;2023-09-19T00:50:10;15.40;99.90
28336;DHT22;15592;53.656;7.276;2023-09-19T00:52:39;15.30;99.90
28336;DHT22;15592;53.656;7.276;2023-09-19T00:55:10;15.30;99.90
28336;DHT22;15592;53.656;7.276;2023-09-19T00:57:37;15.30;99.90
28336;DHT22;15592;53.656;7.276;2023-09-19T01:00:06;15.30;99.90
28336;DHT22;15592;53.656;7.276;2023-09-19T01:02:33;15.30;99.90
28336;DHT22;15592;53.656;7.276;2023-09-19T01:05:00;15.30;99.90
28336;DHT22;15592;53.656;7.276;2023-09-19T01:07:27;15.30;99.90
28336;DHT22;15592;53.656;7.276;2023-09-19T01:09:56;15.30;99.90
28336;DHT22;15592;53.656;7.276;2023-09-19T01:21:21;15.20;99.90
28336;DHT22;15592;53.656;7.276;2023-09-19T01:32:03;15.00;99.90
28336;DHT22;15592;53.656;7.276;2023-09-19T01:34:46;15.00;99.90
28336;DHT22;15592;53.656;7.276;2023-09-19T01:37:13;15.00;99.90
28336;DHT22;15592;53.656;7.276;2023-09-19T01:39:40;15.00;99.90
28336;DHT22;15592;53.656;7.276;2023-09-19T01:45:17;14.90;99.90
28336;DHT22;15592;53.656;7.276;2023-09-19T01:48:43;14.90;99.90
28336;DHT22;15592;53.656;7.276;2023-09-19T01:51:10;14.90;99.90
28336;DHT22;15592;53.656;7.276;2023-09-19T01:54:07;14.90;99.90
28336;DHT22;15592;53.656;7.276;2023-09-19T01:57:01;14.90;99.90
28336;DHT22;15592;53.656;7.276;2023-09-19T01:59:34;14.90;99.90
28336;DHT22;15592;53.656;7.276;2023-09-19T02:02:01;14.90;99.90
28336;DHT22;15592;53.656;7.276;2023-09-19T02:04:27;14.80;99.90
28336;DHT22;15592;53.656;7.276;2023-09-19T02:06:53;14.80;99.90
28336;DHT22;15592;53.656;7.276;2023-09-19T02:09:19;14.90;99.90
28336;DHT22;15592;53.656;7.276;2023-09-19T02:11:45;14.80;99.90
28336;DHT22;15592;53.656;7.276;2023-09-19T02:14:11;14.80;99.90
28336;DHT22;15592;53.656;7.276;2023-09-19T02:16:37;14.80;99.90
28336;DHT22;15592;53.656;7.276;2023-09-19T02:19:03;14.80;99.90
28336;DHT22;15592;53.656;7.276;2023-09-19T02:21:31;14.70;99.90
28336;DHT22;15592;53.656;7.276;2023-09-19T02:23:57;14.60;99.90
28336;DHT22;15592;53.656;7.276;2023-09-19T02:26:24;14.60;99.90
28336;DHT22;15592;53.656;7.276;2023-09-19T02:28:50;14.60;99.90
28336;DHT22;15592;53.656;7.276;2023-09-19T02:31:15;14.60;99.90
28336;DHT22;15592;53.656;7.276;2023-09-19T02:33:42;14.60;99.90
28336;DHT22;15592;53.656;7.276;2023-09-19T02:36:08;14.60;99.90
28336;DHT22;15592;53.656;7.276;2023-09-19T02:38:35;14.60;99.90
28336;DHT22;15592;53.656;7.276;2023-09-19T02:41:00;14.50;99.90
28336;DHT22;15592;53.656;7.276;2023-09-19T02:43:27;14.60;99.90
28336;DHT22;15592;53.656;7.276;2023-09-19T02:45:53;14.60;99.90
28336;DHT22;15592;53.656;7.276;2023-09-19T02:48:22;14.50;99.90
28336;DHT22;15592;53.656;7.276;2023-09-19T02:50:51;14.50;99.90
28336;DHT22;15592;53.656;7.276;2023-09-19T02:53:17;14.50;99.90
28336;DHT22;15592;53.656;7.276;2023-09-19T02:55:42;14.50;99.90
28336;DHT22;15592;53.656;7.276;2023-09-19T02:58:08;14.50;99.90
28336;DHT22;15592;53.656;7.276;2023-09-19T03:00:37;14.50;99.90
28336;DHT22;15592;53.656;7.276;2023-09-19T03:03:03;14.50;99.90
28336;DHT22;15592;53.656;7.276;2023-09-19T03:05:29;14.50;99.90
28336;DHT22;15592;53.656;7.276;2023-09-19T03:07:58;14.50;99.90
28336;DHT22;15592;53.656;7.276;2023-09-19T03:10:26;14.40;99.90
28336;DHT22;15592;53.656;7.276;2023-09-19T03:12:53;14.40;99.90
28336;DHT22;15592;53.656;7.276;2023-09-19T03:15:19;14.40;99.90
28336;DHT22;15592;53.656;7.276;2023-09-19T03:17:47;14.40;99.90
28336;DHT22;15592;53.656;7.276;2023-09-19T03:20:13;14.30;99.90
28336;DHT22;15592;53.656;7.276;2023-09-19T03:22:39;14.30;99.90
28336;DHT22;15592;53.656;7.276;2023-09-19T03:25:06;14.30;99.90
28336;DHT22;15592;53.656;7.276;2023-09-19T03:27:36;14.30;99.90
28336;DHT22;15592;53.656;7.276;2023-09-19T03:30:04;14.30;99.90
28336;DHT22;15592;53.656;7.276;2023-09-19T03:32:37;14.30;99.90
28336;DHT22;15592;53.656;7.276;2023-09-19T03:35:08;14.20;99.90
28336;DHT22;15592;53.656;7.276;2023-09-19T03:37:36;14.30;99.90
28336;DHT22;15592;53.656;7.276;2023-09-19T03:40:02;14.20;99.90
28336;DHT22;15592;53.656;7.276;2023-09-19T03:42:31;14.20;99.90
28336;DHT22;15592;53.656;7.276;2023-09-19T03:44:57;14.20;99.90
28336;DHT22;15592;53.656;7.276;2023-09-19T03:47:22;14.20;99.90
28336;DHT22;15592;53.656;7.276;2023-09-19T03:49:48;14.30;99.90
28336;DHT22;15592;53.656;7.276;2023-09-19T03:52:14;14.30;99.90
28336;DHT22;15592;53.656;7.276;2023-09-19T03:54:41;14.30;99.90
28336;DHT22;15592;53.656;7.276;2023-09-19T03:57:07;14.30;99.90
28336;DHT22;15592;53.656;7.276;2023-09-19T03:59:32;14.30;99.90
28336;DHT22;15592;53.656;7.276;2023-09-19T04:01:58;14.30;99.90
28336;DHT22;15592;53.656;7.276;2023-09-19T04:04:24;14.30;99.90
28336;DHT22;15592;53.656;7.276;2023-09-19T04:06:53;14.30;99.90
28336;DHT22;15592;53.656;7.276;2023-09-19T04:09:19;14.30;99.90
28336;DHT22;15592;53.656;7.276;2023-09-19T04:11:45;14.30;99.90
28336;DHT22;15592;53.656;7.276;2023-09-19T04:14:10;14.30;99.90
28336;DHT22;15592;53.656;7.276;2023-09-19T04:16:36;14.20;99.90
28336;DHT22;15592;53.656;7.276;2023-09-19T04:19:02;14.20;99.90
28336;DHT22;15592;53.656;7.276;2023-09-19T04:21:29;14.10;99.90
28336;DHT22;15592;53.656;7.276;2023-09-19T04:23:54;14.20;99.90
28336;DHT22;15592;53.656;7.276;2023-09-19T04:26:20;14.10;99.90
28336;DHT22;15592;53.656;7.276;2023-09-19T04:28:47;14.10;99.90
28336;DHT22;15592;53.656;7.276;2023-09-19T04:31:12;14.10;99.90
28336;DHT22;15592;53.656;7.276;2023-09-19T04:33:39;14.10;99.90
28336;DHT22;15592;53.656;7.276;2023-09-19T04:36:05;14.10;99.90
28336;DHT22;15592;53.656;7.276;2023-09-19T04:38:32;14.10;99.90
28336;DHT22;15592;53.656;7.276;2023-09-19T04:40:58;14.10;99.90
28336;DHT22;15592;53.656;7.276;2023-09-19T04:43:25;14.00;99.90
28336;DHT22;15592;53.656;7.276;2023-09-19T04:45:50;14.00;99.90
28336;DHT22;15592;53.656;7.276;2023-09-19T04:48:16;14.00;99.90
28336;DHT22;15592;53.656;7.276;2023-09-19T04:50:43;14.00;99.90
28336;DHT22;15592;53.656;7.276;2023-09-19T04:53:09;14.00;99.90
28336;DHT22;15592;53.656;7.276;2023-09-19T04:55:34;14.00;99.90
28336;DHT22;15592;53.656;7.276;2023-09-19T04:58:00;14.00;99.90
28336;DHT22;15592;53.656;7.276;2023-09-19T05:00:26;14.00;99.90
28336;DHT22;15592;53.656;7.276;2023-09-19T05:02:56;14.00;99.90
28336;DHT22;15592;53.656;7.276;2023-09-19T05:05:22;13.90;99.90
28336;DHT22;15592;53.656;7.276;2023-09-19T05:07:49;13.90;99.90
28336;DHT22;15592;53.656;7.276;2023-09-19T05:10:18;13.90;99.90
28336;DHT22;15592;53.656;7.276;2023-09-19T05:12:53;13.90;99.90
28336;DHT22;15592;53.656;7.276;2023-09-19T05:18:42;14.00;99.90
28336;DHT22;15592;53.656;7.276;2023-09-19T05:21:16;13.90;99.90
28336;DHT22;15592;53.656;7.276;2023-09-19T05:23:55;13.90;99.90
28336;DHT22;15592;53.656;7.276;2023-09-19T05:26:28;13.90;99.90
28336;DHT22;15592;53.656;7.276;2023-09-19T05:28:54;13.90;99.90
28336;DHT22;15592;53.656;7.276;2023-09-19T05:31:33;13.90;99.90
28336;DHT22;15592;53.656;7.276;2023-09-19T05:34:05;13.90;99.90
28336;DHT22;15592;53.656;7.276;2023-09-19T05:36:31;14.00;99.90
28336;DHT22;15592;53.656;7.276;2023-09-19T05:38:57;14.00;99.90
28336;DHT22;15592;53.656;7.276;2023-09-19T05:41:23;14.00;99.90
28336;DHT22;15592;53.656;7.276;2023-09-19T05:43:49;14.00;99.90
28336;DHT22;15592;53.656;7.276;2023-09-19T05:46:15;14.00;99.90
28336;DHT22;15592;53.656;7.276;2023-09-19T05:48:42;14.00;99.90
28336;DHT22;15592;53.656;7.276;2023-09-19T05:57:30;14.10;99.90
28336;DHT22;15592;53.656;7.276;2023-09-19T05:59:59;14.10;99.90
28336;DHT22;15592;53.656;7.276;2023-09-19T06:02:35;14.10;99.90
28336;DHT22;15592;53.656;7.276;2023-09-19T06:05:05;14.10;99.90
28336;DHT22;15592;53.656;7.276;2023-09-19T06:07:51;14.10;99.90
28336;DHT22;15592;53.656;7.276;2023-09-19T06:10:17;14.10;99.90
28336;DHT22;15592;53.656;7.276;2023-09-19T06:12:43;14.10;99.90
28336;DHT22;15592;53.656;7.276;2023-09-19T06:15:10;14.10;99.90
28336;DHT22;15592;53.656;7.276;2023-09-19T06:17:50;14.10;99.90
28336;DHT22;15592;53.656;7.276;2023-09-19T06:20:16;14.10;99.90
28336;DHT22;15592;53.656;7.276;2023-09-19T06:22:44;14.20;99.90
28336;DHT22;15592;53.656;7.276;2023-09-19T06:25:10;14.20;99.90
28336;DHT22;15592;53.656;7.276;2023-09-19T06:27:40;14.20;99.90
28336;DHT22;15592;53.656;7.276;2023-09-19T06:30:10;14.20;99.90
28336;DHT22;15592;53.656;7.276;2023-09-19T06:32:44;14.20;99.90
28336;DHT22;15592;53.656;7.276;2023-09-19T06:35:11;14.20;99.90
28336;DHT22;15592;53.656;7.276;2023-09-19T06:37:38;14.20;99.90
28336;DHT22;15592;53.656;7.276;2023-09-19T06:40:12;14.20;99.90
28336;DHT22;15592;53.656;7.276;2023-09-19T06:42:42;14.20;99.90
28336;DHT22;15592;53.656;7.276;2023-09-19T06:45:08;14.20;99.90
28336;DHT22;15592;53.656;7.276;2023-09-19T06:47:37;14.20;99.90
28336;DHT22;15592;53.656;7.276;2023-09-19T06:50:02;14.20;99.90
28336;DHT22;15592;53.656;7.276;2023-09-19T06:52:29;14.20;99.90
28336;DHT22;15592;53.656;7.276;2023-09-19T06:54:54;14.30;99.90
28336;DHT22;15592;53.656;7.276;2023-09-19T06:57:20;14.30;99.90
28336;DHT22;15592;53.656;7.276;2023-09-19T06:59:46;14.30;99.90
28336;DHT22;15592;53.656;7.276;2023-09-19T07:02:11;14.30;99.90
28336;DHT22;15592;53.656;7.276;2023-09-19T07:04:39;14.30;99.90
28336;DHT22;15592;53.656;7.276;2023-09-19T07:07:05;14.30;99.90
28336;DHT22;15592;53.656;7.276;2023-09-19T07:09:30;14.40;99.90
28336;DHT22;15592;53.656;7.276;2023-09-19T07:11:57;14.40;99.90
28336;DHT22;15592;53.656;7.276;2023-09-19T07:14:23;14.40;99.90
28336;DHT22;15592;53.656;7.276;2023-09-19T07:16:49;14.40;99.90
28336;DHT22;15592;53.656;7.276;2023-09-19T07:19:16;14.40;99.90
28336;DHT22;15592;53.656;7.276;2023-09-19T07:21:41;14.50;99.90
28336;DHT22;15592;53.656;7.276;2023-09-19T07:24:08;14.50;99.90
28336;DHT22;15592;53.656;7.276;2023-09-19T07:26:34;14.50;99.90
28336;DHT22;15592;53.656;7.276;2023-09-19T07:29:00;14.50;99.90
28336;DHT22;15592;53.656;7.276;2023-09-19T07:31:27;14.50;99.90
28336;DHT22;15592;53.656;7.276;2023-09-19T07:33:54;14.50;99.90
28336;DHT22;15592;53.656;7.276;2023-09-19T07:36:19;14.60;99.90
28336;DHT22;15592;53.656;7.276;2023-09-19T07:38:45;14.60;99.90
28336;DHT22;15592;53.656;7.276;2023-09-19T07:41:11;14.60;99.90
28336;DHT22;15592;53.656;7.276;2023-09-19T07:43:36;14.60;99.90
28336;DHT22;15592;53.656;7.276;2023-09-19T07:46:07;14.70;99.90
28336;DHT22;15592;53.656;7.276;2023-09-19T07:48:34;14.70;99.90
28336;DHT22;15592;53.656;7.276;2023-09-19T07:51:05;14.70;99.90
28336;DHT22;15592;53.656;7.276;2023-09-19T07:53:31;14.70;99.90
28336;DHT22;15592;53.656;7.276;2023-09-19T07:56:08;14.70;99.90
28336;DHT22;15592;53.656;7.276;2023-09-19T07:58:34;14.80;99.90
28336;DHT22;15592;53.656;7.276;2023-09-19T08:01:05;14.80;99.90
28336;DHT22;15592;53.656;7.276;2023-09-19T08:03:32;14.80;99.90
28336;DHT22;15592;53.656;7.276;2023-09-19T08:05:58;14.80;99.90
28336;DHT22;15592;53.656;7.276;2023-09-19T08:08:23;14.90;99.90
28336;DHT22;15592;53.656;7.276;2023-09-19T08:10:56;14.90;99.90
28336;DHT22;15592;53.656;7.276;2023-09-19T08:13:25;14.90;99.90
28336;DHT22;15592;53.656;7.276;2023-09-19T08:15:52;14.90;99.90
28336;DHT22;15592;53.656;7.276;2023-09-19T08:18:20;15.00;99.90
28336;DHT22;15592;53.656;7.276;2023-09-19T08:20:50;15.00;99.90
28336;DHT22;15592;53.656;7.276;2023-09-19T08:23:16;15.10;99.90
28336;DHT22;15592;53.656;7.276;2023-09-19T08:25:43;15.10;99.90
28336;DHT22;15592;53.656;7.276;2023-09-19T08:28:09;15.10;99.90
28336;DHT22;15592;53.656;7.276;2023-09-19T08:30:37;15.20;99.90
28336;DHT22;15592;53.656;7.276;2023-09-19T08:33:06;15.20;99.90
28336;DHT22;15592;53.656;7.276;2023-09-19T08:35:33;15.20;99.90
28336;DHT22;15592;53.656;7.276;2023-09-19T08:37:59;15.30;99.90
28336;DHT22;15592;53.656;7.276;2023-09-19T08:40:30;15.40;99.90
28336;DHT22;15592;53.656;7.276;2023-09-19T08:42:59;15.40;99.90
28336;DHT22;15592;53.656;7.276;2023-09-19T08:45:26;15.50;99.90
28336;DHT22;15592;53.656;7.276;2023-09-19T08:51:06;15.50;99.90
28336;DHT22;15592;53.656;7.276;2023-09-19T08:54:03;15.50;99.90
28336;DHT22;15592;53.656;7.276;2023-09-19T08:56:30;15.60;99.90
28336;DHT22;15592;53.656;7.276;2023-09-19T08:59:03;15.60;99.90
28336;DHT22;15592;53.656;7.276;2023-09-19T09:01:31;15.60;99.90
28336;DHT22;15592;53.656;7.276;2023-09-19T09:03:58;15.70;99.90
28336;DHT22;15592;53.656;7.276;2023-09-19T09:06:25;15.70;99.90
28336;DHT22;15592;53.656;7.276;2023-09-19T09:08:51;15.80;99.90
28336;DHT22;15592;53.656;7.276;2023-09-19T09:11:20;15.80;99.90
28336;DHT22;15592;53.656;7.276;2023-09-19T09:13:47;15.80;99.90
28336;DHT22;15592;53.656;7.276;2023-09-19T09:16:14;15.90;99.90
28336;DHT22;15592;53.656;7.276;2023-09-19T09:18:43;15.90;99.90
28336;DHT22;15592;53.656;7.276;2023-09-19T09:21:10;15.90;99.90
28336;DHT22;15592;53.656;7.276;2023-09-19T09:23:41;15.90;99.90
28336;DHT22;15592;53.656;7.276;2023-09-19T09:26:06;16.00;99.90
28336;DHT22;15592;53.656;7.276;2023-09-19T09:28:33;16.00;99.90
28336;DHT22;15592;53.656;7.276;2023-09-19T09:31:04;16.10;99.90
28336;DHT22;15592;53.656;7.276;2023-09-19T09:33:35;16.10;99.90
28336;DHT22;15592;53.656;7.276;2023-09-19T09:36:02;16.20;99.90
28336;DHT22;15592;53.656;7.276;2023-09-19T09:38:30;16.20;99.90
28336;DHT22;15592;53.656;7.276;2023-09-19T09:41:09;16.40;99.90
28336;DHT22;15592;53.656;7.276;2023-09-19T09:43:41;16.50;99.90
28336;DHT22;15592;53.656;7.276;2023-09-19T09:46:12;16.60;99.90
28336;DHT22;15592;53.656;7.276;2023-09-19T09:49:10;16.60;99.90
28336;DHT22;15592;53.656;7.276;2023-09-19T09:51:58;16.60;99.90
28336;DHT22;15592;53.656;7.276;2023-09-19T09:54:25;16.70;99.90
28336;DHT22;15592;53.656;7.276;2023-09-19T09:57:08;16.70;99.90
28336;DHT22;15592;53.656;7.276;2023-09-19T09:59:55;16.70;99.90
28336;DHT22;15592;53.656;7.276;2023-09-19T10:02:29;16.80;99.90
28336;DHT22;15592;53.656;7.276;2023-09-19T10:04:58;16.80;99.90
28336;DHT22;15592;53.656;7.276;2023-09-19T10:07:34;16.80;99.90
28336;DHT22;15592;53.656;7.276;2023-09-19T10:10:09;16.80;99.90
28336;DHT22;15592;53.656;7.276;2023-09-19T10:12:43;16.80;99.90
28336;DHT22;15592;53.656;7.276;2023-09-19T10:15:11;16.80;99.90
28336;DHT22;15592;53.656;7.276;2023-09-19T10:17:43;16.80;99.90
28336;DHT22;15592;53.656;7.276;2023-09-19T10:20:18;16.80;99.90
28336;DHT22;15592;53.656;7.276;2023-09-19T10:23:09;16.80;99.90
28336;DHT22;15592;53.656;7.276;2023-09-19T10:25:41;16.90;99.90
28336;DHT22;15592;53.656;7.276;2023-09-19T10:28:08;16.90;99.90
28336;DHT22;15592;53.656;7.276;2023-09-19T10:30:41;16.90;99.90
28336;DHT22;15592;53.656;7.276;2023-09-19T10:33:16;16.90;99.90
28336;DHT22;15592;53.656;7.276;2023-09-19T10:35:44;16.90;99.90
28336;DHT22;15592;53.656;7.276;2023-09-19T10:38:11;16.80;99.90
28336;DHT22;15592;53.656;7.276;2023-09-19T10:40:38;16.80;99.90
28336;DHT22;15592;53.656;7.276;2023-09-19T10:43:12;16.80;99.90
28336;DHT22;15592;53.656;7.276;2023-09-19T10:45:41;16.90;99.90
28336;DHT22;15592;53.656;7.276;2023-09-19T10:48:12;16.90;99.90
28336;DHT22;15592;53.656;7.276;2023-09-19T10:50:44;16.90;99.90
28336;DHT22;15592;53.656;7.276;2023-09-19T10:53:12;17.00;99.90
28336;DHT22;15592;53.656;7.276;2023-09-19T10:55:59;17.00;99.90
28336;DHT22;15592;53.656;7.276;2023-09-19T10:58:30;17.10;99.90
28336;DHT22;15592;53.656;7.276;2023-09-19T11:01:00;17.10;99.90
28336;DHT22;15592;53.656;7.276;2023-09-19T11:03:40;17.10;99.90
28336;DHT22;15592;53.656;7.276;2023-09-19T11:06:17;17.10;99.90
28336;DHT22;15592;53.656;7.276;2023-09-19T11:09:01;17.00;99.90
28336;DHT22;15592;53.656;7.276;2023-09-19T11:11:46;17.10;99.90
28336;DHT22;15592;53.656;7.276;2023-09-19T11:30:42;17.40;99.90
28336;DHT22;15592;53.656;7.276;2023-09-19T11:33:26;17.40;99.90
28336;DHT22;15592;53.656;7.276;2023-09-19T11:36:02;17.40;99.90
28336;DHT22;15592;53.656;7.276;2023-09-19T11:43:51;17.60;99.90
28336;DHT22;15592;53.656;7.276;2023-09-19T11:46:17;17.60;99.90
28336;DHT22;15592;53.656;7.276;2023-09-19T11:48:48;17.60;99.90
28336;DHT22;15592;53.656;7.276;2023-09-19T11:51:23;17.60;99.90
28336;DHT22;15592;53.656;7.276;2023-09-19T11:54:03;17.50;99.90
28336;DHT22;15592;53.656;7.276;2023-09-19T11:56:39;17.50;99.90
28336;DHT22;15592;53.656;7.276;2023-09-19T11:59:06;17.50;99.90
28336;DHT22;15592;53.656;7.276;2023-09-19T12:01:36;17.60;99.90
28336;DHT22;15592;53.656;7.276;2023-09-19T12:04:08;17.60;99.90
28336;DHT22;15592;53.656;7.276;2023-09-19T12:06:36;17.60;99.90
28336;DHT22;15592;53.656;7.276;2023-09-19T12:09:04;17.60;99.90
28336;DHT22;15592;53.656;7.276;2023-09-19T12:11:41;17.50;99.90
28336;DHT22;15592;53.656;7.276;2023-09-19T12:14:08;17.50;99.90
28336;DHT22;15592;53.656;7.276;2023-09-19T12:16:34;17.50;99.90
28336;DHT22;15592;53.656;7.276;2023-09-19T12:19:18;17.50;99.90
28336;DHT22;15592;53.656;7.276;2023-09-19T12:22:00;17.50;99.90
28336;DHT22;15592;53.656;7.276;2023-09-19T12:24:34;17.50;99.90
28336;DHT22;15592;53.656;7.276;2023-09-19T12:27:06;17.50;99.90
28336;DHT22;15592;53.656;7.276;2023-09-19T12:29:47;17.50;99.90
28336;DHT22;15592;53.656;7.276;2023-09-19T12:32:17;17.40;99.90
28336;DHT22;15592;53.656;7.276;2023-09-19T12:34:51;17.40;99.90
28336;DHT22;15592;53.656;7.276;2023-09-19T12:37:18;17.40;99.90
28336;DHT22;15592;53.656;7.276;2023-09-19T12:40:04;17.30;99.90
28336;DHT22;15592;53.656;7.276;2023-09-19T12:42:41;17.30;99.90
28336;DHT22;15592;53.656;7.276;2023-09-19T12:45:07;17.30;99.90
28336;DHT22;15592;53.656;7.276;2023-09-19T12:47:35;17.30;99.90
28336;DHT22;15592;53.656;7.276;2023-09-19T12:50:36;17.20;99.90
28336;DHT22;15592;53.656;7.276;2023-09-19T12:53:26;17.20;99.90
28336;DHT22;15592;53.656;7.276;2023-09-19T12:56:00;17.20;99.90
28336;DHT22;15592;53.656;7.276;2023-09-19T12:58:26;17.20;99.90
28336;DHT22;15592;53.656;7.276;2023-09-19T13:00:52;17.20;99.90
28336;DHT22;15592;53.656;7.276;2023-09-19T13:03:24;17.20;99.90
28336;DHT22;15592;53.656;7.276;2023-09-19T13:05:51;17.20;99.90
28336;DHT22;15592;53.656;7.276;2023-09-19T13:08:19;17.20;99.90
28336;DHT22;15592;53.656;7.276;2023-09-19T13:11:05;17.20;99.90
28336;DHT22;15592;53.656;7.276;2023-09-19T13:13:46;17.20;99.90
28336;DHT22;15592;53.656;7.276;2023-09-19T13:16:29;17.20;99.90
28336;DHT22;15592;53.656;7.276;2023-09-19T13:25:13;17.20;99.90
28336;DHT22;15592;53.656;7.276;2023-09-19T13:27:53;17.20;99.90
28336;DHT22;15592;53.656;7.276;2023-09-19T13:30:20;17.20;99.90
28336;DHT22;15592;53.656;7.276;2023-09-19T13:32:46;17.20;99.90
28336;DHT22;15592;53.656;7.276;2023-09-19T13:35:15;17.20;99.90
28336;DHT22;15592;53.656;7.276;2023-09-19T13:40:37;17.10;99.90
28336;DHT22;15592;53.656;7.276;2023-09-19T13:43:33;17.10;99.90
28336;DHT22;15592;53.656;7.276;2023-09-19T13:45:59;17.10;99.90
28336;DHT22;15592;53.656;7.276;2023-09-19T13:48:44;17.20;99.90
28336;DHT22;15592;53.656;7.276;2023-09-19T13:51:12;17.10;99.90
28336;DHT22;15592;53.656;7.276;2023-09-19T13:53:38;17.20;99.90
28336;DHT22;15592;53.656;7.276;2023-09-19T13:56:04;17.20;99.90
28336;DHT22;15592;53.656;7.276;2023-09-19T13:58:30;17.20;99.90
28336;DHT22;15592;53.656;7.276;2023-09-19T14:00:56;17.20;99.90
28336;DHT22;15592;53.656;7.276;2023-09-19T14:03:23;17.20;99.90
28336;DHT22;15592;53.656;7.276;2023-09-19T14:05:54;17.20;99.90
28336;DHT22;15592;53.656;7.276;2023-09-19T14:08:23;17.30;99.90
28336;DHT22;15592;53.656;7.276;2023-09-19T14:10:49;17.20;99.90
28336;DHT22;15592;53.656;7.276;2023-09-19T14:13:15;17.20;99.90
28336;DHT22;15592;53.656;7.276;2023-09-19T14:15:41;17.20;99.90
28336;DHT22;15592;53.656;7.276;2023-09-19T14:18:16;17.20;99.90
28336;DHT22;15592;53.656;7.276;2023-09-19T14:20:45;17.20;99.90
28336;DHT22;15592;53.656;7.276;2023-09-19T14:23:11;17.20;99.90
28336;DHT22;15592;53.656;7.276;2023-09-19T14:25:37;17.20;99.90
28336;DHT22;15592;53.656;7.276;2023-09-19T14:28:19;17.20;99.90
28336;DHT22;15592;53.656;7.276;2023-09-19T14:30:44;17.20;99.90
28336;DHT22;15592;53.656;7.276;2023-09-19T14:33:11;17.20;99.90
28336;DHT22;15592;53.656;7.276;2023-09-19T14:35:37;17.20;99.90
28336;DHT22;15592;53.656;7.276;2023-09-19T14:38:03;17.30;99.90
28336;DHT22;15592;53.656;7.276;2023-09-19T14:40:29;17.30;99.90
28336;DHT22;15592;53.656;7.276;2023-09-19T14:42:55;17.30;99.90
28336;DHT22;15592;53.656;7.276;2023-09-19T14:45:20;17.30;99.90
28336;DHT22;15592;53.656;7.276;2023-09-19T14:47:55;17.30;99.90
28336;DHT22;15592;53.656;7.276;2023-09-19T14:50:21;17.30;99.90
28336;DHT22;15592;53.656;7.276;2023-09-19T14:52:48;17.20;99.90
28336;DHT22;15592;53.656;7.276;2023-09-19T14:55:18;17.30;99.90
28336;DHT22;15592;53.656;7.276;2023-09-19T14:57:51;17.30;99.90
28336;DHT22;15592;53.656;7.276;2023-09-19T15:00:17;17.30;99.90
28336;DHT22;15592;53.656;7.276;2023-09-19T15:02:46;17.30;99.90
28336;DHT22;15592;53.656;7.276;2023-09-19T15:05:17;17.30;99.90
28336;DHT22;15592;53.656;7.276;2023-09-19T15:07:43;17.30;99.90
28336;DHT22;15592;53.656;7.276;2023-09-19T15:10:08;17.30;99.90
28336;DHT22;15592;53.656;7.276;2023-09-19T15:12:37;17.40;99.90
28336;DHT22;15592;53.656;7.276;2023-09-19T15:15:04;17.40;99.90
28336;DHT22;15592;53.656;7.276;2023-09-19T15:17:35;17.40;99.90
28336;DHT22;15592;53.656;7.276;2023-09-19T15:20:01;17.40;99.90
28336;DHT22;15592;53.656;7.276;2023-09-19T15:22:33;17.40;99.90
28336;DHT22;15592;53.656;7.276;2023-09-19T15:25:00;17.30;99.90
28336;DHT22;15592;53.656;7.276;2023-09-19T15:27:28;17.30;99.90
28336;DHT22;15592;53.656;7.276;2023-09-19T15:29:56;17.30;99.90
28336;DHT22;15592;53.656;7.276;2023-09-19T15:32:24;17.30;99.90
28336;DHT22;15592;53.656;7.276;2023-09-19T15:34:50;17.20;99.90
28336;DHT22;15592;53.656;7.276;2023-09-19T15:37:15;17.20;99.90
28336;DHT22;15592;53.656;7.276;2023-09-19T15:39:41;17.20;99.90
28336;DHT22;15592;53.656;7.276;2023-09-19T15:42:07;17.20;99.90
28336;DHT22;15592;53.656;7.276;2023-09-19T15:44:33;17.20;99.90
28336;DHT22;15592;53.656;7.276;2023-09-19T15:46:59;17.20;99.90
28336;DHT22;15592;53.656;7.276;2023-09-19T15:49:25;17.30;99.90
28336;DHT22;15592;53.656;7.276;2023-09-19T15:51:51;17.20;99.90
28336;DHT22;15592;53.656;7.276;2023-09-19T15:54:17;17.30;99.90
28336;DHT22;15592;53.656;7.276;2023-09-19T15:56:44;17.20;99.90
28336;DHT22;15592;53.656;7.276;2023-09-19T15:59:10;17.20;99.90
28336;DHT22;15592;53.656;7.276;2023-09-19T16:01:38;17.20;99.90
28336;DHT22;15592;53.656;7.276;2023-09-19T16:04:04;17.10;99.90
28336;DHT22;15592;53.656;7.276;2023-09-19T16:06:31;17.10;99.90
28336;DHT22;15592;53.656;7.276;2023-09-19T16:08:58;17.00;99.90
28336;DHT22;15592;53.656;7.276;2023-09-19T16:11:27;16.90;99.90
28336;DHT22;15592;53.656;7.276;2023-09-19T16:13:53;16.90;99.90
28336;DHT22;15592;53.656;7.276;2023-09-19T16:16:21;16.80;99.90
28336;DHT22;15592;53.656;7.276;2023-09-19T16:18:50;16.80;99.90
28336;DHT22;15592;53.656;7.276;2023-09-19T16:21:17;16.70;99.90
28336;DHT22;15592;53.656;7.276;2023-09-19T16:23:49;16.70;99.90
28336;DHT22;15592;53.656;7.276;2023-09-19T16:26:16;16.70;99.90
28336;DHT22;15592;53.656;7.276;2023-09-19T16:28:44;16.60;99.90
28336;DHT22;15592;53.656;7.276;2023-09-19T16:31:09;16.60;99.90
28336;DHT22;15592;53.656;7.276;2023-09-19T16:33:40;16.50;99.90
28336;DHT22;15592;53.656;7.276;2023-09-19T16:36:10;16.50;99.90
28336;DHT22;15592;53.656;7.276;2023-09-19T16:38:36;16.40;99.90
28336;DHT22;15592;53.656;7.276;2023-09-19T16:41:03;16.40;99.90
28336;DHT22;15592;53.656;7.276;2023-09-19T16:43:30;16.40;99.90
28336;DHT22;15592;53.656;7.276;2023-09-19T16:46:00;16.30;99.90
28336;DHT22;15592;53.656;7.276;2023-09-19T16:48:27;16.30;99.90